Science Garden, Philippines

3:43 PM PHT on September 01, 2015 (GMT +0800)
Taft Avenue, Manila | | Change Station
CLOSE
Current Station
Personal Weather Station
Location: 2401 Taft Avenue, Manila
Elevation: 276 ft
Nearby Weather Stations

Elev 276 ft 14.57 °N, 120.99 °E | Updated 3 minutes ago

Mostly Cloudy
Mostly Cloudy
86.9 °F
Feels Like 102 °F
N
0.0
Wind Variable Wind from WSW
Gusts 0.0 mph

Today
High -- | Low -- °F
--% Chance of Precip.
Yesterday
High -- | Low -- °F
Precip. -- in
5:43 AM 6:08 PM
Waning Gibbous, 90% visible
Pressure 29.77 in
Visibility 6.2 miles
Clouds Scattered Clouds 2500 ft
Mostly Cloudy 10000 ft
Heat Index 102 °F
Dew Point 80 °F
Humidity 79%
Rainfall 0.00 in
Snow Depth Not available.
UV 0.0 out of 12
Pollen Not available.
Air Quality Not available.
Flu Activity Not available.
METAR RPLL 010700Z 27007KT 9999 SCT025 BKN100 31/24 Q1008 NOSIG RMK A2977
Pressure 29.77 in
Visibility 6.2 miles
Clouds Scattered Clouds 2500 ft
Mostly Cloudy 10000 ft
Heat Index 102 °F
Dew Point 80 °F
Humidity 79%
Rainfall 0.00 in
Snow Depth Not available.
UV 0.0 out of 12
Pollen Not available.
Air Quality Not available.
Flu Activity Not available.
METAR RPLL 010700Z 27007KT 9999 SCT025 BKN100 31/24 Q1008 NOSIG RMK A2977

10-Day Weather Forecast

×

Almanac

Astronomy

Sep. 01, 2015 Rise Set
Actual Time
Civil Twilight
Nautical Twilight
Astronomical Twilight
Moon
Length of Visible Light
Length of Day
Tomorrow will be .
, % of the Moon is Illuminated

Today's Extremes

Country Highs Country Lows

Community

WunderPhotos

Upload Photos

1,851,488 photos uploaded!

WunderBlogs® & News

Nearby

Air Quality

  Air Quality AQ Index Pollutant
Not available.

Snow Depth

Station Depth Elevation

Earthquake Activity

City Distance Mag. Time & Date
Minimum magnitude displayed is 2.5.

Coastal Water Temperatures

Place Temperature

Stations

Nearby Weather Stations

Station Location Temp. Windchill Dew Point Humidity Wind Precip. Elev Updated Type